Latest Weather Observations for Omeo

IDV60801

Issued at 10:42 am EDT Sunday 17 February 2019 (issued every 10 minutes, with the page automatically refreshed every 10 minutes)

About weather observations | Map of weather stations | Latest weather observations for VIC | Other Formats
Station Details ID: 083090 Name: OMEO Lat: -37.10 Lon: 147.60 Height: 689.8 m
Data from the previous 72 hours. | See also: Recent months at Omeo
Date/Time
EDT
Temp
°C
App
Temp
°C
Dew
Point
°C
Rel
Hum
%
Delta-T
°C
Wind Press
QNH
hPa
Press
MSL
hPa
Rain since
9am
mm
Dir  Spd
km/h
Gust
km/h
Spd
kts
Gust
kts
17/10:30am 22.2 19.1 10.4 47 6.7 N 17 24 9 13 1015.3 1012.7 0.0
17/10:00am 20.5 17.2 9.7 50 6.0 N 17 26 9 14 1015.4 1012.8 0.0
17/09:30am 17.8 14.7 10.4 62 4.1 N 17 26 9 14 1015.7 1013.1 0.0
17/09:00am 16.3 13.6 10.2 67 3.3 N 15 24 8 13 1015.9 1013.3 0.0
17/08:30am 14.2 11.3 9.8 75 2.4 N 15 20 8 11 1015.9 1013.3 0.0
17/08:00am 12.0 10.2 9.6 85 1.3 N 9 11 5 6 1016.0 1013.4 0.0
17/07:30am 10.7 9.9 9.6 93 0.6 NNW 4 7 2 4 1016.0 1013.4 0.0
17/07:00am 10.3 9.1 9.7 96 0.3 W 6 7 3 4 1015.9 1013.3 0.0
17/06:30am 10.0 9.9 9.4 96 0.3 CALM 0 0 0 0 1015.7 1013.1 0.0
17/06:00am 10.2 10.2 9.7 97 0.3 CALM 0 0 0 0 1015.4 1012.8 0.0
17/05:30am 10.5 10.5 9.7 95 0.4 CALM 0 0 0 0 1015.4 1012.8 0.0
17/05:00am 10.8 10.9 10.2 96 0.3 CALM 0 0 0 0 1015.5 1012.9 0.0
17/04:30am 10.9 10.9 9.8 93 0.6 CALM 0 0 0 0 1015.5 1012.9 0.0
17/04:00am 11.4 11.5 10.3 93 0.6 CALM 0 0 0 0 1015.8 1013.2 0.0
17/03:30am 11.5 11.2 10.2 92 0.7 SE 2 6 1 3 1016.1 1013.5 0.0
17/03:00am 11.8 11.9 10.2 90 0.9 CALM 0 6 0 3 1016.2 1013.6 0.0
17/02:30am 12.4 12.6 10.6 89 1.0 CALM 0 0 0 0 1016.4 1013.8 0.0
17/02:00am 12.7 12.9 10.6 87 1.1 CALM 0 4 0 2 1016.8 1014.2 0.0
17/01:30am 13.5 13.1 11.2 86 1.3 S 4 7 2 4 1017.0 1014.4 0.0
17/01:00am 13.9 14.3 11.2 84 1.5 CALM 0 0 0 0 1017.3 1014.7 0.0
17/12:30am 14.7 14.9 11.7 82 1.7 SW 2 6 1 3 1017.5 1014.9 0.0
17/12:00am 15.6 15.0 11.8 78 2.1 S 6 9 3 5 1017.6 1015.0 0.0
 
Date/Time
EDT
Temp
°C
App
Temp
°C
Dew
Point
°C
Rel
Hum
%
Delta-T
°C
Wind Press
QNH
hPa
Press
MSL
hPa
Rain since
9am
mm
Dir  Spd
km/h
Gust
km/h
Spd
kts
Gust
kts
16/11:30pm 16.4 15.9 12.0 75 2.5 S 6 9 3 5 1017.8 1015.3 0.0
16/11:00pm 16.9 16.3 12.2 74 2.7 S 7 15 4 8 1017.9 1015.4 0.0
16/10:30pm 17.9 15.9 12.6 71 3.1 SE 15 22 8 12 1018.1 1015.5 0.0
16/10:00pm 18.4 16.7 12.4 68 3.4 SE 13 20 7 11 1018.2 1015.6 0.0
16/09:30pm 19.2 17.9 12.5 65 3.9 SSE 11 20 6 11 1018.2 1015.6 0.0
16/09:00pm 20.3 19.3 12.3 60 4.6 SSE 9 24 5 13 1017.8 1015.3 0.0
16/08:30pm 21.5 19.0 11.2 52 5.9 SSE 15 28 8 15 1017.5 1014.9 0.0
16/08:00pm 22.7 19.7 10.5 46 6.9 SE 17 26 9 14 1017.2 1014.6 0.0
16/07:30pm 24.5 20.8 9.6 39 8.4 ESE 19 30 10 16 1016.8 1014.2 0.0
16/07:00pm 27.1 24.6 6.5 27 11.2 W 9 15 5 8 1016.4 1013.8 0.0
16/06:30pm 27.4 23.8 6.8 27 11.2 NW 15 24 8 13 1016.4 1013.8 0.0
16/06:00pm 28.8 24.7 6.2 24 12.3 W 17 26 9 14 1016.4 1013.8 0.0
16/05:30pm 28.9 24.8 6.3 24 12.3 NW 17 24 9 13 1016.4 1013.8 0.0
16/05:00pm 29.3 25.3 6.7 24 12.4 NNW 17 24 9 13 1016.6 1014.0 0.0
16/04:30pm 28.3 25.4 6.4 25 11.9 W 11 17 6 9 1016.8 1014.2 0.0
16/04:00pm 27.7 24.0 6.5 26 11.5 NNW 15 26 8 14 1017.1 1014.5 0.0
16/03:30pm 29.4 24.8 5.5 22 12.9 NW 19 30 10 16 1017.2 1014.6 0.0
16/03:00pm 29.5 24.6 4.9 21 13.1 NW 20 33 11 18 1017.6 1015.0 0.0
16/02:30pm 29.0 24.2 5.8 23 12.6 WNW 20 39 11 21 1018.3 1015.7 0.0
16/02:00pm 28.3 22.7 5.2 23 12.3 WNW 24 41 13 22 1018.5 1015.9 0.0
16/01:30pm 28.4 24.0 6.5 25 12.0 N 19 30 10 16 1018.6 1016.0 0.0
16/01:00pm 30.0 24.9 7.8 25 12.5 N 24 37 13 20 1018.8 1016.2 0.0
16/12:30pm 28.0 24.8 8.3 29 11.1 NNE 15 24 8 13 1019.3 1016.8 0.0
16/12:00pm 26.1 22.7 10.7 38 8.9 N 19 28 10 15 1020.0 1017.4 0.0
16/11:30am 25.4 23.7 12.3 44 7.8 N 13 20 7 11 1020.4 1017.9 0.0
16/11:00am 22.5 20.0 12.2 52 6.0 N 17 22 9 12 1020.8 1018.3 0.0
16/10:30am 21.7 19.2 12.3 55 5.5 N 17 22 9 12 1021.0 1018.5 0.0
16/10:00am 20.9 18.2 11.8 56 5.2 N 17 26 9 14 1020.9 1018.4 0.0
16/09:30am 18.4 16.5 11.9 66 3.7 N 13 19 7 10 1021.4 1018.8 0.0
16/09:00am 16.3 14.7 11.7 74 2.6 N 11 15 6 8 1021.7 1019.2 0.0
16/08:30am 14.1 13.0 11.8 86 1.3 NNW 9 11 5 6 1021.7 1019.2 0.0
16/08:00am 12.4 12.7 11.0 91 0.8 CALM 0 0 0 0 1021.9 1019.4 0.0
16/07:30am 11.8 11.8 11.0 95 0.4 E 2 7 1 4 1021.8 1019.3 0.0
16/07:00am 11.0 11.1 10.2 95 0.4 CALM 0 0 0 0 1021.7 1019.2 0.0
16/06:30am 11.4 11.2 10.5 94 0.5 NW 2 6 1 3 1021.4 1018.8 0.0
16/06:00am 11.7 10.8 10.8 94 0.5 N 6 9 3 5 1021.4 1018.8 0.0
16/05:30am 11.8 11.3 10.9 94 0.5 N 4 7 2 4 1021.3 1018.7 0.0
16/05:00am 11.3 10.2 10.5 95 0.4 WNW 7 11 4 6 1021.3 1018.7 0.0
16/04:30am 11.0 11.1 10.2 95 0.4 CALM 0 0 0 0 1021.4 1018.8 0.0
16/04:00am 11.1 11.2 10.3 95 0.4 CALM 0 0 0 0 1021.5 1018.9 0.0
16/03:30am 11.6 11.7 10.3 92 0.7 CALM 0 0 0 0 1021.7 1019.2 0.0
16/03:00am 11.9 12.2 11.0 94 0.5 CALM 0 0 0 0 1021.6 1019.0 0.0
16/02:30am 12.0 11.9 10.9 93 0.6 SE 2 7 1 4 1022.2 1019.7 0.0
16/02:00am 12.7 13.2 11.6 93 0.6 CALM 0 0 0 0 1022.3 1019.8 0.0
16/01:30am 12.8 13.2 11.4 91 0.8 CALM 0 0 0 0 1022.8 1020.2 0.0
16/01:00am 13.2 13.6 11.4 89 1.0 CALM 0 6 0 3 1023.1 1020.6 0.0
16/12:30am 13.6 13.3 11.5 87 1.2 SE 4 9 2 5 1023.4 1020.9 0.0
16/12:00am 14.1 13.2 11.4 84 1.5 SSE 7 11 4 6 1023.4 1020.9 0.0
 
Date/Time
EDT
Temp
°C
App
Temp
°C
Dew
Point
°C
Rel
Hum
%
Delta-T
°C
Wind Press
QNH
hPa
Press
MSL
hPa
Rain since
9am
mm
Dir  Spd
km/h
Gust
km/h
Spd
kts
Gust
kts
15/11:30pm 14.4 13.6 11.6 83 1.6 S 7 11 4 6 1023.5 1021.0 0.0
15/11:00pm 14.9 13.7 11.7 81 1.8 SSW 9 11 5 6 1024.0 1021.5 0.0
15/10:30pm 15.5 14.7 11.7 78 2.1 S 7 13 4 7 1024.1 1021.6 0.0
15/10:00pm 16.3 14.0 11.9 75 2.5 SSE 15 24 8 13 1024.0 1021.5 0.0
15/09:30pm 16.9 14.2 11.8 72 2.9 SE 17 26 9 14 1023.8 1021.3 0.0
15/09:00pm 17.6 15.0 11.9 69 3.2 SE 17 24 9 13 1023.3 1020.8 0.0
15/08:30pm 18.3 16.8 11.8 66 3.7 S 11 20 6 11 1023.0 1020.5 0.0
15/08:00pm 19.6 17.0 11.9 61 4.4 SE 17 28 9 15 1022.5 1020.0 0.0
15/07:30pm 21.1 17.5 11.7 55 5.4 SE 22 37 12 20 1022.1 1019.6 0.0
15/07:00pm 23.3 19.6 11.4 47 6.9 SE 22 33 12 18 1021.9 1019.4 0.0
15/06:30pm 25.0 21.1 10.8 41 8.2 SE 22 35 12 19 1021.7 1019.2 0.0
15/06:00pm 27.5 23.8 9.3 32 10.3 SE 19 30 10 16 1021.8 1019.3 0.0
15/05:30pm 28.4 24.6 7.6 27 11.6 SE 17 28 9 15 1021.7 1019.2 0.0
15/05:00pm 28.3 24.5 7.5 27 11.5 SE 17 26 9 14 1021.8 1019.3 0.0
15/04:30pm 28.7 25.0 7.9 27 11.6 SE 17 24 9 13 1022.0 1019.5 0.0
15/04:00pm 28.8 25.5 7.9 27 11.7 SE 15 24 8 13 1022.1 1019.6 0.0
15/03:30pm 28.8 25.7 7.4 26 11.9 SE 13 24 7 13 1022.3 1019.8 0.0
15/03:00pm 28.5 24.9 8.2 28 11.4 ESE 17 22 9 12 1022.6 1020.1 0.0
15/02:30pm 28.2 25.5 7.4 27 11.5 SE 11 19 6 10 1023.1 1020.6 0.0
15/02:00pm 27.5 24.1 5.7 25 11.6 SE 13 20 7 11 1023.5 1021.0 0.0
15/01:30pm 26.5 24.5 7.0 29 10.6 ESE 7 15 4 8 1023.7 1021.2 0.0
15/01:00pm 25.4 23.7 8.4 34 9.4 ENE 7 15 4 8 1024.1 1021.6 0.0
15/12:30pm 24.3 22.5 7.9 35 9.0 N 7 15 4 8 1024.6 1022.1 0.0
15/12:00pm 23.2 21.5 7.7 37 8.4 E 6 9 3 5 1025.0 1022.5 0.0
15/11:30am 21.7 19.9 7.2 39 7.7 NNE 6 11 3 6 1025.2 1022.7 0.0
15/11:00am 20.9 19.6 9.2 47 6.4 NE 6 9 3 5 1025.4 1022.9 0.0
15/10:30am 18.5 17.0 9.0 54 5.1 NNE 7 9 4 5 1025.4 1022.9 0.0
15/10:00am 16.2 14.7 8.4 60 4.1 NNW 6 9 3 5 1025.5 1023.1 0.0
15/09:30am 14.2 13.5 8.4 68 3.0 N 2 7 1 4 1025.6 1023.2 0.0
15/09:00am 12.8 12.0 8.1 73 2.4 N 2 7 1 4 1025.7 1023.3 0.0
15/08:30am 10.9 10.0 7.6 80 1.7 WNW 2 6 1 3 1025.5 1023.1 0.0
15/08:00am 9.3 8.7 7.4 88 0.9 CALM 0 0 0 0 1025.3 1022.8 0.0
15/07:30am 8.0 7.3 6.9 93 0.5 CALM 0 0 0 0 1025.0 1022.5 0.0
15/07:00am 6.8 5.9 5.9 94 0.4 CALM 0 0 0 0 1024.8 1022.3 0.0
15/06:30am 7.1 6.2 6.2 94 0.4 CALM 0 0 0 0 1024.5 1022.0 0.0
15/06:00am 7.2 6.3 6.1 93 0.5 CALM 0 0 0 0 1024.5 1022.0 0.0
15/05:30am 7.8 7.0 6.4 91 0.7 CALM 0 0 0 0 1024.3 1021.8 0.0
15/05:00am 8.3 6.2 6.8 90 0.7 SSW 7 11 4 6 1024.0 1021.5 0.0
15/04:30am 8.1 6.9 6.6 90 0.7 S 2 6 1 3 1024.1 1021.6 0.0
15/04:00am 8.2 6.6 6.5 89 0.8 SSE 4 7 2 4 1023.9 1021.4 0.0
15/03:30am 8.6 7.8 6.7 88 0.9 CALM 0 0 0 0 1023.9 1021.4 0.0
15/03:00am 9.3 6.9 7.1 86 1.1 S 9 11 5 6 1023.8 1021.3 0.0
15/02:30am 9.7 6.9 7.1 84 1.3 SW 11 13 6 7 1023.9 1021.4 0.0
15/02:00am 10.2 8.6 8.0 86 1.1 SW 6 9 3 5 1024.1 1021.6 0.0
15/01:30am 10.6 8.9 8.2 85 1.2 S 7 11 4 6 1024.3 1021.8 0.0
15/01:00am 11.1 9.4 8.3 83 1.4 S 7 13 4 7 1024.1 1021.6 0.0
15/12:30am 11.0 9.2 7.9 81 1.6 SSE 7 9 4 5 1024.1 1021.6 0.0
15/12:00am 11.7 9.6 8.4 80 1.7 SSE 9 15 5 8 1024.3 1021.8 0.0
 
Date/Time
EDT
Temp
°C
App
Temp
°C
Dew
Point
°C
Rel
Hum
%
Delta-T
°C
Wind Press
QNH
hPa
Press
MSL
hPa
Rain since
9am
mm
Dir  Spd
km/h
Gust
km/h
Spd
kts
Gust
kts
14/11:30pm 11.9 9.8 8.4 79 1.8 S 9 13 5 7 1024.3 1021.8 0.0
14/11:00pm 12.6 10.1 8.3 75 2.2 SSE 11 20 6 11 1024.0 1021.5 0.0
14/10:30pm 13.2 11.1 8.1 71 2.6 SSE 9 17 5 9 1023.7 1021.2 0.0
14/10:00pm 13.9 11.3 7.9 67 3.1 S 11 20 6 11 1023.4 1020.9 0.0
14/09:30pm 14.7 10.9 7.7 63 3.6 SE 17 28 9 15 1023.1 1020.6 0.0
14/09:00pm 15.7 11.9 7.7 59 4.1 SE 17 26 9 14 1022.5 1020.0 0.0
14/08:30pm 16.7 12.3 7.4 54 4.8 SE 20 30 11 16 1021.9 1019.4 0.0
14/08:00pm 18.0 13.6 6.5 47 5.9 SE 19 35 10 19 1021.2 1018.6 0.0
14/07:30pm 20.1 15.3 5.7 39 7.4 SE 20 35 11 19 1020.4 1017.9 0.0
14/07:00pm 22.0 17.7 5.4 34 8.5 SE 17 30 9 16 1019.9 1017.3 0.0
14/06:30pm 22.7 17.0 4.7 31 9.2 SE 24 32 13 17 1019.3 1016.8 0.0
14/06:00pm 24.2 19.5 5.1 29 9.9 SE 19 32 10 17 1019.1 1016.6 0.0
14/05:30pm 25.0 20.1 4.2 26 10.7 SE 19 28 10 15 1018.7 1016.1 0.0
14/05:00pm 25.5 22.9 4.0 25 11.0 WNW 7 13 4 7 1018.6 1016.0 0.0
14/04:30pm 25.1 21.9 3.1 24 11.1 NE 9 20 5 11 1018.5 1015.9 0.0
14/04:00pm 24.4 20.6 3.7 26 10.5 NNW 13 20 7 11 1018.6 1016.0 0.0
14/03:30pm 24.5 20.3 3.8 26 10.5 NNW 15 22 8 12 1018.6 1016.0 0.0
14/03:00pm 24.1 20.1 2.9 25 10.6 NNE 13 22 7 12 1018.7 1016.1 0.0
14/02:30pm 23.3 19.0 3.3 27 10.0 NNE 15 26 8 14 1018.7 1016.1 0.0
14/02:00pm 22.5 18.9 3.1 28 9.6 NNE 11 22 6 12 1018.7 1016.1 0.0
14/01:30pm 22.4 18.4 3.0 28 9.6 NNE 13 22 7 12 1018.7 1016.1 0.0
14/01:00pm 21.3 17.0 3.0 30 9.0 NNE 15 24 8 13 1019.0 1016.4 0.0
14/12:30pm 20.4 16.2 4.0 34 8.2 N 15 28 8 15 1019.1 1016.6 0.0
14/12:00pm 18.6 13.9 3.3 36 7.4 N 17 24 9 13 1019.4 1016.9 0.0
14/11:30am 17.5 13.1 4.5 42 6.4 N 17 30 9 16 1019.5 1017.0 0.0
14/11:00am 16.3 11.8 4.4 45 5.8 N 17 26 9 14 1019.5 1017.0 0.0

Other Formats:

Comma delimited format used in spreadsheet applications
http://www.bom.gov.au/fwo/IDV60801/IDV60801.94908.axf

JavaScript Object Notation format (JSON) in row-major order
http://www.bom.gov.au/fwo/IDV60801/IDV60801.94908.json